createdAt,value
2022-09-04T00:02:42.643Z,78.27
2022-09-04T00:05:43.825Z,78.43
2022-09-04T00:08:50.635Z,78.43
2022-09-04T00:11:55.623Z,78.84
2022-09-04T00:14:42.061Z,78.81
2022-09-04T00:17:43.629Z,79.08
2022-09-04T00:20:45.667Z,79.03
2022-09-04T00:23:42.628Z,79.44
2022-09-04T00:26:46.938Z,79.78
2022-09-04T00:29:45.584Z,79.81
2022-09-04T00:32:41.207Z,79.90
2022-09-04T00:35:37.578Z,79.92
2022-09-04T00:38:26.196Z,79.96
2022-09-04T00:41:47.584Z,79.99
2022-09-04T00:44:37.577Z,80.78
2022-09-04T00:47:54.749Z,80.45
2022-09-04T00:51:01.599Z,80.81
2022-09-04T00:54:15.656Z,80.58
2022-09-04T00:57:31.579Z,81.42
2022-09-04T01:00:22.583Z,81.46
2022-09-04T01:03:40.331Z,81.52
2022-09-04T01:06:42.551Z,81.61
2022-09-04T01:09:58.645Z,82.25
2022-09-04T01:12:53.579Z,82.41
2022-09-04T01:15:52.996Z,82.53
2022-09-04T01:19:21.512Z,83.00
2022-09-04T01:22:27.540Z,83.30
2022-09-04T01:25:58.554Z,83.67
2022-09-04T01:29:00.498Z,83.63
2022-09-04T01:32:09.545Z,83.67
2022-09-04T01:35:17.532Z,83.87
2022-09-04T01:38:09.625Z,83.48
2022-09-04T01:41:06.497Z,83.53
2022-09-04T01:43:46.638Z,83.33
2022-09-04T01:46:36.485Z,83.84
2022-09-04T01:49:23.727Z,83.97
2022-09-04T01:52:28.491Z,83.70
2022-09-04T01:55:27.671Z,83.38
2022-09-04T01:58:21.483Z,83.62
2022-09-04T02:01:27.533Z,83.30
2022-09-04T02:04:16.314Z,82.74
2022-09-04T02:07:22.465Z,82.93
2022-09-04T02:10:09.021Z,82.73
2022-09-04T02:13:09.498Z,82.84
2022-09-04T02:16:14.506Z,82.72
2022-09-04T02:19:04.464Z,82.42
2022-09-04T02:21:57.647Z,83.43
2022-09-04T02:24:55.482Z,83.22
2022-09-04T02:28:08.491Z,83.45
2022-09-04T02:31:16.468Z,83.53
2022-09-04T02:34:13.469Z,83.56
2022-09-04T02:36:57.550Z,83.90
2022-09-04T02:39:56.494Z,83.76
2022-09-04T02:42:54.618Z,84.38
2022-09-04T02:46:00.417Z,83.56
2022-09-04T02:48:59.741Z,82.91
2022-09-04T02:52:30.431Z,82.95
2022-09-04T02:55:37.438Z,83.09
2022-09-04T02:58:33.552Z,82.77
2022-09-04T03:01:35.497Z,81.54
2022-09-04T03:04:30.430Z,81.13
2022-09-04T03:25:51.021Z,81.19
2022-09-04T03:28:50.009Z,80.65
2022-09-04T03:31:55.225Z,80.67
2022-09-04T03:34:48.027Z,79.92
2022-09-04T03:38:05.991Z,79.34
2022-09-04T03:41:04.529Z,79.77
2022-09-04T03:44:12.982Z,79.06
2022-09-04T03:47:06.019Z,78.37
2022-09-04T03:50:23.949Z,78.04
2022-09-04T03:53:23.301Z,77.28
2022-09-04T03:56:21.999Z,76.89
2022-09-04T03:59:20.082Z,77.49
2022-09-04T04:02:09.989Z,77.57
2022-09-04T04:05:27.976Z,76.61
2022-09-04T04:08:23.384Z,76.12
2022-09-04T04:11:13.002Z,76.04
2022-09-04T04:14:21.066Z,74.56
2022-09-04T04:17:32.951Z,73.81
2022-09-04T04:20:36.795Z,73.59
2022-09-04T04:23:29.962Z,73.36
2022-09-04T04:26:14.237Z,73.10
2022-09-04T04:29:14.933Z,72.64
2022-09-04T04:32:19.915Z,71.62
2022-09-04T04:35:16.509Z,68.59
2022-09-04T04:38:26.931Z,66.52
2022-09-04T04:41:30.944Z,66.11
2022-09-04T04:44:26.919Z,63.98
2022-09-04T04:47:55.938Z,62.18
2022-09-04T04:51:17.853Z,62.49
2022-09-04T04:54:15.927Z,63.15
2022-09-04T04:57:33.911Z,60.60
2022-09-04T05:00:31.921Z,60.33
2022-09-04T05:03:49.886Z,59.99
2022-09-04T05:07:12.926Z,54.44
2022-09-04T05:10:19.875Z,57.08
2022-09-04T05:13:23.915Z,54.47
2022-09-04T05:16:54.838Z,52.76
2022-09-04T05:19:50.402Z,52.82
2022-09-04T05:22:40.640Z,52.38
2022-09-04T05:25:40.886Z,51.83
2022-09-04T05:28:35.861Z,53.54
2022-09-04T05:31:44.905Z,50.79
2022-09-04T05:35:02.822Z,49.34
2022-09-04T05:38:11.881Z,48.05
2022-09-04T05:41:10.874Z,47.80
2022-09-04T05:44:26.881Z,47.96
2022-09-04T05:50:57.845Z,44.49
2022-09-04T05:54:00.788Z,43.82
2022-09-04T05:56:58.937Z,44.05
2022-09-04T06:00:04.852Z,44.63
2022-09-04T06:02:57.027Z,43.43
2022-09-04T06:06:07.826Z,42.93
2022-09-04T06:09:16.839Z,41.71
2022-09-04T06:12:24.807Z,40.99
2022-09-04T06:15:27.778Z,39.91
2022-09-04T06:18:29.549Z,40.35
2022-09-04T06:21:31.851Z,39.67
2022-09-04T06:24:34.822Z,39.74
2022-09-04T06:27:55.827Z,37.86
2022-09-04T06:31:08.833Z,36.64
2022-09-04T06:34:05.776Z,38.46
2022-09-04T06:37:09.962Z,37.63
2022-09-04T06:40:21.814Z,36.22
2022-09-04T06:43:30.788Z,35.94
2022-09-04T06:46:39.451Z,35.14
2022-09-04T06:49:46.820Z,34.96
2022-09-04T06:52:38.922Z,33.16
2022-09-04T06:55:56.785Z,35.46
2022-09-04T06:59:17.775Z,34.55
2022-09-04T07:02:27.268Z,33.16
2022-09-04T07:05:38.777Z,33.68
2022-09-04T07:08:30.851Z,34.42
2022-09-04T07:11:23.761Z,33.01
2022-09-04T07:14:41.769Z,33.06
2022-09-04T07:17:45.763Z,34.11
2022-09-04T07:20:49.876Z,33.56
2022-09-04T07:24:08.759Z,32.88
2022-09-04T07:27:05.762Z,31.62
2022-09-04T07:30:21.866Z,32.11
2022-09-04T07:33:23.738Z,31.77
2022-09-04T07:36:11.853Z,31.31
2022-09-04T07:39:06.753Z,30.04
2022-09-04T07:41:55.943Z,28.59
2022-09-04T07:44:58.746Z,26.38
2022-09-04T07:48:02.701Z,27.97
2022-09-04T07:51:14.948Z,28.87
2022-09-04T07:54:22.920Z,28.97
2022-09-04T07:57:21.285Z,28.37
2022-09-04T08:00:27.720Z,27.32
2022-09-04T08:03:53.737Z,28.46
2022-09-04T08:06:49.695Z,27.00
2022-09-04T08:09:50.371Z,26.16
2022-09-04T08:12:58.670Z,25.02
2022-09-04T08:15:50.082Z,24.04
2022-09-04T08:18:59.730Z,24.74
2022-09-04T08:21:49.692Z,24.09
2022-09-04T08:24:45.817Z,24.47
2022-09-04T08:27:36.712Z,28.00
2022-09-04T08:30:35.731Z,25.97
2022-09-04T08:33:49.158Z,24.83
2022-09-04T08:36:53.666Z,25.16
2022-09-04T08:40:12.681Z,28.31
2022-09-04T08:43:26.661Z,29.87
2022-09-04T08:46:30.174Z,29.47
2022-09-04T08:49:53.679Z,33.55
2022-09-04T08:53:04.127Z,34.29
2022-09-04T08:55:56.680Z,36.14
2022-09-04T08:58:57.769Z,33.89
2022-09-04T09:02:09.690Z,26.59
2022-09-04T09:05:24.661Z,27.50
2022-09-04T09:08:46.174Z,32.63
2022-09-04T09:11:56.635Z,32.87
2022-09-04T09:15:04.657Z,31.34
2022-09-04T09:18:24.732Z,30.82
2022-09-04T09:21:39.474Z,32.46
2022-09-04T09:24:53.617Z,34.71
2022-09-04T09:27:52.702Z,35.61
2022-09-04T09:31:05.748Z,38.17
2022-09-04T09:34:27.466Z,38.89
2022-09-04T09:37:29.630Z,41.39
2022-09-04T09:40:24.017Z,39.44
2022-09-04T09:43:16.628Z,30.92
2022-09-04T09:46:35.174Z,30.93
2022-09-04T09:49:58.621Z,28.53
2022-09-04T09:53:10.630Z,25.35
2022-09-04T09:55:57.172Z,27.17
2022-09-04T09:59:01.622Z,32.95
2022-09-04T10:02:18.923Z,33.21
2022-09-04T10:05:33.599Z,36.04
2022-09-04T10:08:37.577Z,38.68
2022-09-04T10:11:52.606Z,36.98
2022-09-04T10:14:54.748Z,38.12
2022-09-04T10:17:47.598Z,39.55
2022-09-04T10:20:49.540Z,39.76
2022-09-04T10:24:05.595Z,39.80
2022-09-04T10:27:01.571Z,39.21
2022-09-04T10:30:07.663Z,39.18
2022-09-04T10:33:01.533Z,40.04
2022-09-04T10:35:59.669Z,39.76
2022-09-04T10:39:39.614Z,40.31
2022-09-04T10:42:49.675Z,39.46
2022-09-04T10:45:42.636Z,38.38
2022-09-04T10:49:15.561Z,39.29
2022-09-04T10:52:23.541Z,40.54
2022-09-04T10:55:28.556Z,40.62
2022-09-04T10:58:39.940Z,39.93
2022-09-04T11:01:47.502Z,39.99
2022-09-04T11:05:06.543Z,39.77
2022-09-04T11:08:20.530Z,39.12
2022-09-04T11:11:22.467Z,41.72
2022-09-04T11:15:00.540Z,41.27
2022-09-04T11:18:39.535Z,42.36
2022-09-04T11:22:07.517Z,42.46
2022-09-04T11:25:33.542Z,41.48
2022-09-04T11:28:15.760Z,41.37
2022-09-04T11:31:33.608Z,41.90
2022-09-04T11:34:33.198Z,42.97
2022-09-04T11:37:57.433Z,41.47
2022-09-04T11:40:38.043Z,41.75
2022-09-04T11:43:43.493Z,41.94
2022-09-04T11:46:33.008Z,41.36
2022-09-04T11:49:37.503Z,42.37
2022-09-04T11:53:02.481Z,42.67
2022-09-04T11:56:01.630Z,41.11
2022-09-04T11:58:48.504Z,40.49
2022-09-04T12:01:31.582Z,40.27
2022-09-04T12:04:34.525Z,39.75
2022-09-04T12:07:42.953Z,39.00
2022-09-04T12:10:50.509Z,40.01
2022-09-04T12:14:05.645Z,40.03
2022-09-04T12:17:12.458Z,40.84
2022-09-04T12:20:13.462Z,40.94
2022-09-04T12:22:55.838Z,41.08
2022-09-04T12:26:13.440Z,41.05
2022-09-04T12:29:23.460Z,41.39
2022-09-04T12:32:57.581Z,40.72
2022-09-04T12:36:16.501Z,39.70
2022-09-04T12:39:37.497Z,40.20
2022-09-04T12:42:46.420Z,41.32
2022-09-04T12:45:36.623Z,40.94
2022-09-04T12:48:40.424Z,40.66
2022-09-04T12:51:31.422Z,40.28
2022-09-04T12:54:38.437Z,41.07
2022-09-04T12:57:33.015Z,41.44
2022-09-04T13:00:23.450Z,42.20
2022-09-04T13:03:11.188Z,42.55
2022-09-04T13:06:08.853Z,42.35
2022-09-04T13:09:15.414Z,42.11
2022-09-04T13:12:20.404Z,42.53
2022-09-04T13:15:19.544Z,42.46
2022-09-04T13:18:30.413Z,41.81
2022-09-04T13:21:46.441Z,41.63
2022-09-04T13:24:48.416Z,41.83
2022-09-04T13:28:21.421Z,41.81
2022-09-04T13:31:22.531Z,42.22
2022-09-04T13:34:31.414Z,42.33
2022-09-04T13:38:00.370Z,41.58
2022-09-04T13:41:24.368Z,41.58
2022-09-04T13:44:47.347Z,42.04
2022-09-04T13:47:40.384Z,43.25
2022-09-04T13:50:49.349Z,43.56
2022-09-04T13:53:47.369Z,43.07
2022-09-04T13:56:46.500Z,42.85
2022-09-04T13:59:29.374Z,43.42
2022-09-04T14:02:14.839Z,45.08
2022-09-04T14:05:03.371Z,43.77
2022-09-04T14:07:47.687Z,45.78
2022-09-04T14:10:37.337Z,45.43
2022-09-04T14:13:58.371Z,45.04
2022-09-04T14:16:38.575Z,43.99
2022-09-04T14:19:49.345Z,43.94
2022-09-04T14:23:03.357Z,44.26
2022-09-04T14:26:13.338Z,44.57
2022-09-04T14:29:26.354Z,52.28
2022-09-04T14:32:18.823Z,53.72
2022-09-04T14:35:09.357Z,56.86
2022-09-04T14:38:07.519Z,59.23
2022-09-04T14:41:25.344Z,61.16
2022-09-04T14:44:12.790Z,61.73
2022-09-04T14:47:13.318Z,63.33
2022-09-04T14:50:04.276Z,63.88
2022-09-04T14:52:56.304Z,64.59
2022-09-04T14:55:39.414Z,65.68
2022-09-04T14:58:34.282Z,64.83
2022-09-04T15:01:28.490Z,64.35
2022-09-04T15:04:27.308Z,63.90
2022-09-04T15:07:34.283Z,63.80
2022-09-04T15:10:35.221Z,62.41
2022-09-04T15:28:06.821Z,66.40
2022-09-04T15:31:15.250Z,65.45
2022-09-04T15:33:55.890Z,64.90
2022-09-04T15:36:45.816Z,66.75
2022-09-04T15:39:55.127Z,65.34
2022-09-04T15:42:52.816Z,65.48
2022-09-04T15:45:49.798Z,64.53
2022-09-04T15:48:53.549Z,63.08
2022-09-04T15:51:52.779Z,62.49
2022-09-04T15:54:48.795Z,61.27
2022-09-04T15:57:39.430Z,59.97
2022-09-04T16:00:32.750Z,60.32
2022-09-04T16:03:34.783Z,60.53
2022-09-04T16:06:31.729Z,59.67
2022-09-04T16:09:42.749Z,58.41
2022-09-04T16:12:55.742Z,57.78
2022-09-04T16:15:51.008Z,58.21
2022-09-04T16:18:53.743Z,55.71
2022-09-04T16:22:22.780Z,57.39
2022-09-04T16:25:08.909Z,58.76
2022-09-04T16:28:18.790Z,60.05
2022-09-04T16:31:02.170Z,60.84
2022-09-04T16:33:53.737Z,60.96
2022-09-04T16:36:45.894Z,61.58
2022-09-04T16:39:42.761Z,61.88
2022-09-04T16:43:01.720Z,62.41
2022-09-04T16:46:08.773Z,62.91
2022-09-04T16:49:19.749Z,63.21
2022-09-04T16:52:16.700Z,63.81
2022-09-04T16:55:16.717Z,63.98
2022-09-04T16:58:15.718Z,64.41
2022-09-04T17:01:13.798Z,64.44
2022-09-04T17:04:19.708Z,64.51
2022-09-04T17:07:13.135Z,64.46
2022-09-04T17:10:15.730Z,65.20
2022-09-04T17:13:15.261Z,65.20
2022-09-04T17:16:29.700Z,65.40
2022-09-04T17:19:20.671Z,65.54
2022-09-04T17:28:54.184Z,65.41
2022-09-04T17:28:56.661Z,65.48
2022-09-04T17:29:53.929Z,65.57
2022-09-04T17:35:45.639Z,66.06
2022-09-04T17:40:44.532Z,66.13
2022-09-04T17:40:54.775Z,66.43
2022-09-04T17:42:40.831Z,66.31
2022-09-04T17:45:51.400Z,66.13
2022-09-04T17:48:48.652Z,66.22
2022-09-04T17:51:40.662Z,65.62
2022-09-04T17:54:27.143Z,65.87
2022-09-04T17:57:28.601Z,65.64
2022-09-04T18:00:20.453Z,65.47
2022-09-04T18:03:17.736Z,65.33
2022-09-04T18:06:09.594Z,65.49
2022-09-04T18:09:01.617Z,65.56
2022-09-04T18:12:00.355Z,65.64
2022-09-04T18:15:44.654Z,65.68
2022-09-04T18:18:44.790Z,65.58
2022-09-04T18:22:25.114Z,65.87
2022-09-04T18:25:25.803Z,66.23
2022-09-04T18:28:21.771Z,66.41
2022-09-04T18:37:18.719Z,66.41
2022-09-04T18:37:21.676Z,66.33
2022-09-04T18:38:10.794Z,66.79
2022-09-04T18:42:45.708Z,66.59
2022-09-04T18:50:24.350Z,66.52
2022-09-04T18:50:43.190Z,66.69
2022-09-04T18:51:19.302Z,66.42
2022-09-04T18:54:12.155Z,66.68
2022-09-04T18:57:06.483Z,66.37
2022-09-04T19:00:07.688Z,66.25
2022-09-04T19:02:59.679Z,66.36
2022-09-04T19:05:45.496Z,66.46
2022-09-04T19:08:53.642Z,66.22
2022-09-04T19:11:42.223Z,65.87
2022-09-04T19:14:36.633Z,65.92
2022-09-04T19:17:37.628Z,65.67
2022-09-04T19:20:23.877Z,65.84
2022-09-04T19:23:21.754Z,66.19
2022-09-04T19:26:07.470Z,66.34
2022-09-04T19:29:02.650Z,66.17
2022-09-04T19:32:02.684Z,66.21
2022-09-04T19:34:55.184Z,66.48
2022-09-04T19:40:58.396Z,66.70
2022-09-04T19:46:12.081Z,67.02
2022-09-04T19:46:19.312Z,66.82
2022-09-04T19:48:00.794Z,66.98
2022-09-04T19:53:22.330Z,67.42
2022-09-04T19:54:17.547Z,67.22
2022-09-04T19:57:32.857Z,67.02
2022-09-04T20:00:42.302Z,67.22
2022-09-04T20:03:46.355Z,67.34
2022-09-04T20:06:39.531Z,67.65
2022-09-04T20:09:22.892Z,67.75
2022-09-04T20:12:15.528Z,67.53
2022-09-04T20:15:04.048Z,67.87
2022-09-04T20:18:04.002Z,67.88
2022-09-04T20:20:56.216Z,67.95
2022-09-04T20:24:13.464Z,68.02
2022-09-04T20:27:22.444Z,67.90
2022-09-04T20:30:24.985Z,67.84
2022-09-04T20:33:14.480Z,67.95
2022-09-04T20:36:02.447Z,67.70
2022-09-04T20:39:17.495Z,67.66
2022-09-04T20:42:13.438Z,68.03
2022-09-04T20:50:46.626Z,67.79
2022-09-04T20:53:00.395Z,67.84
2022-09-04T20:53:07.081Z,68.01
2022-09-04T20:55:07.455Z,68.02
2022-09-04T21:02:28.342Z,68.13
2022-09-04T21:03:22.400Z,68.06
2022-09-04T21:05:11.256Z,67.85
2022-09-04T21:07:59.394Z,68.11
2022-09-04T21:10:48.231Z,67.90
2022-09-04T21:13:57.406Z,67.58
2022-09-04T21:16:55.529Z,67.24
2022-09-04T21:20:06.469Z,67.06
2022-09-04T21:22:49.556Z,67.08
2022-09-04T21:25:39.401Z,66.94
2022-09-04T21:28:33.517Z,67.15
2022-09-04T21:31:44.604Z,66.62
2022-09-04T21:34:47.398Z,67.06
2022-09-04T21:37:39.957Z,67.69
2022-09-04T21:40:51.696Z,68.32
2022-09-04T21:43:57.383Z,68.78
2022-09-04T21:46:47.418Z,69.02
2022-09-04T21:49:48.379Z,69.49
2022-09-04T21:52:56.423Z,69.61
2022-09-04T21:57:20.820Z,69.81
2022-09-04T22:02:35.110Z,70.02
2022-09-04T22:03:08.615Z,70.03
2022-09-04T22:08:22.230Z,70.44
2022-09-04T22:13:32.635Z,70.53
2022-09-04T22:13:47.829Z,70.85
2022-09-04T22:17:06.434Z,70.94
2022-09-04T22:20:13.018Z,71.19
2022-09-04T22:23:24.422Z,71.24
2022-09-04T22:26:36.443Z,71.18
2022-09-04T22:29:45.359Z,71.09
2022-09-04T22:32:38.354Z,71.68
2022-09-04T22:35:25.287Z,72.01
2022-09-04T22:38:43.331Z,71.16
2022-09-04T22:41:48.284Z,71.65
2022-09-04T22:45:10.158Z,71.48
2022-09-04T22:47:57.336Z,71.75
2022-09-04T22:51:03.718Z,71.72
2022-09-04T22:54:12.333Z,72.02
2022-09-04T22:57:08.409Z,71.79
2022-09-04T23:00:01.448Z,71.77
2022-09-04T23:03:22.550Z,72.31
2022-09-04T23:10:30.671Z,71.92
2022-09-04T23:13:50.841Z,72.78
2022-09-04T23:14:02.316Z,72.41
2022-09-04T23:16:46.301Z,72.46
2022-09-04T23:26:34.951Z,72.32
2022-09-04T23:26:41.903Z,72.65
2022-09-04T23:26:58.723Z,73.46
2022-09-04T23:30:13.954Z,73.17
2022-09-04T23:33:00.280Z,73.75
2022-09-04T23:36:04.334Z,73.55
2022-09-04T23:38:57.123Z,73.83
2022-09-04T23:41:57.283Z,73.51
2022-09-04T23:45:00.547Z,73.56
2022-09-04T23:48:11.236Z,74.02
2022-09-04T23:51:06.361Z,74.01
2022-09-04T23:54:24.991Z,74.02
2022-09-04T23:57:26.618Z,73.70
